Lommel, Belgium
Current Conditions -  °F | °C
As of 9:55 AM on Sunday 23 Nov 2014 (Local Time) from EBBL Reporting Station
Clear Clear  
Wind Chill: 48°   Ceiling: Unl
Heat Index: 48°   Visibility: NA
Dew Point: 46°   Wind: 3mph
Humidity: 93%   Direction: 100°E
Pressure: 30.03"   Gusts: NA
Location:  51.23°N, 5.31°E
Report Text: EBBL 230855Z AUTO 10003KT //// NCD 09/08 Q1017
Loading
Personal Weather Stations






























Interactive Weather Map New forecast layout! Learn more

10-Day Weather Forecast

Advertisements
Track Severe Weather on mobile